Time;durP1;ratioP1;P1;durP2;ratioP2;P2;SDS_P1;SDS_P2;PMS_P1;PMS_P2;Temp;Humidity;BMP_temperature;BMP_pressure;BME280_temperature;BME280_humidity;BME280_pressure;Samples;Min_cycle;Max_cycle;Signal;HPM_P1;HPM_P2
2022/04/13 00:02:19;;;;;;;20.50;12.47;;;;;;;7.12;60.32;101301.78;5080127;58;1138974;-68
2022/04/13 00:07:24;;;;;;;25.83;11.50;;;;;;;7.09;60.65;101305.88;5080142;58;1139015;-68
2022/04/13 00:12:30;;;;;;;22.57;11.57;;;;;;;7.04;60.73;101313.98;5080108;58;1138987;-68
2022/04/13 00:17:39;;;;;;;19.57;10.67;;;;;;;7.00;60.95;101308.52;5079976;58;1139097;-68
2022/04/13 00:22:45;;;;;;;21.57;10.37;;;;;;;6.98;61.04;101302.02;5080099;58;1139121;-68
2022/04/13 00:27:51;;;;;;;23.50;10.33;;;;;;;6.93;61.16;101295.27;5080048;58;1139051;-68
2022/04/13 00:32:57;;;;;;;20.77;10.33;;;;;;;6.87;61.28;101295.60;5078759;58;1139009;-68
2022/04/13 00:38:03;;;;;;;20.33;10.57;;;;;;;6.80;61.47;101293.73;5072442;58;1139125;-68
2022/04/13 00:43:09;;;;;;;21.27;10.50;;;;;;;6.73;61.71;101294.94;5072693;58;1139000;-69
2022/04/13 00:48:39;;;;;;;22.07;10.67;;;;;;;6.65;62.11;101290.08;5072692;58;1139008;-68
2022/04/13 00:53:45;;;;;;;19.30;9.77;;;;;;;6.57;62.35;101284.82;5156119;57;1139105;-69
2022/04/13 00:58:54;;;;;;;23.23;11.63;;;;;;;6.50;62.82;101280.77;5156036;57;1136901;-68
2022/04/13 01:04:04;;;;;;;24.63;10.93;;;;;;;6.41;63.30;101277.29;5156121;57;1139023;-69
2022/04/13 01:09:15;;;;;;;24.30;11.43;;;;;;;6.37;63.10;101279.20;5156055;57;1139241;-69
2022/04/13 01:14:20;;;;;;;23.17;11.57;;;;;;;6.32;63.33;101285.13;5156244;57;1136904;-68
2022/04/13 01:19:27;;;;;;;20.27;10.67;;;;;;;6.27;63.36;101289.73;5156123;57;1136913;-68
2022/04/13 01:24:33;;;;;;;24.93;11.07;;;;;;;6.20;63.37;101289.20;5156102;57;1136962;-68
2022/04/13 01:29:38;;;;;;;28.53;13.10;;;;;;;6.13;63.74;101292.16;5156260;57;1136880;-70
2022/04/13 01:34:53;;;;;;;25.13;11.57;;;;;;;6.06;63.73;101288.99;5147226;57;1137201;-68
2022/04/13 01:39:59;;;;;;;34.63;15.47;;;;;;;6.01;64.13;101285.72;5131724;57;1136890;-68
2022/04/13 01:45:06;;;;;;;32.50;14.50;;;;;;;5.92;64.12;101290.95;5131390;57;1137126;-68
2022/04/13 01:50:12;;;;;;;44.63;18.90;;;;;;;5.88;64.30;101295.94;5131681;57;1136874;-69
2022/04/13 01:55:18;;;;;;;41.90;14.33;;;;;;;5.84;64.33;101288.23;5131457;57;1136933;-69
2022/04/13 02:00:24;;;;;;;28.00;13.80;;;;;;;5.81;64.61;101293.62;5131420;57;1137117;-68
2022/04/13 02:05:30;;;;;;;39.55;14.23;;;;;;;5.73;64.48;101289.19;5131387;57;1136973;-69
2022/04/13 02:10:35;;;;;;;29.63;12.80;;;;;;;5.68;64.49;101292.47;5131372;57;1136952;-68
2022/04/13 02:15:42;;;;;;;36.83;15.53;;;;;;;5.65;64.76;101290.86;5131445;57;1136941;-69
2022/04/13 02:20:47;;;;;;;29.67;14.13;;;;;;;5.63;64.57;101295.33;5131406;57;1136934;-68
2022/04/13 02:25:53;;;;;;;30.77;14.47;;;;;;;5.62;64.68;101297.55;5131429;57;1136976;-69
2022/04/13 02:30:58;;;;;;;32.67;14.23;;;;;;;5.63;64.69;101300.57;5131416;57;1136932;-69
2022/04/13 02:36:05;;;;;;;26.43;13.00;;;;;;;5.61;64.69;101298.02;5131302;56;1134800;-68
2022/04/13 02:41:11;;;;;;;21.57;12.13;;;;;;;5.58;64.68;101302.08;5131304;57;1134888;-68
2022/04/13 02:46:17;;;;;;;30.03;12.97;;;;;;;5.54;64.65;101290.01;5131623;57;1139105;-69
2022/04/13 02:51:23;;;;;;;21.73;12.43;;;;;;;5.51;64.68;101278.33;5131497;57;1139194;-69
2022/04/13 02:56:28;;;;;;;19.23;10.45;;;;;;;5.45;64.72;101285.64;5142917;56;1138999;-69
2022/04/13 03:01:34;;;;;;;19.37;11.60;;;;;;;5.41;64.62;101289.31;5131535;57;1146334;-69
2022/04/13 03:06:40;;;;;;;21.83;11.70;;;;;;;5.40;64.60;101286.30;5217513;56;1139033;-69
2022/04/13 03:11:46;;;;;;;23.93;12.50;;;;;;;5.40;64.70;101291.53;5131819;57;1139196;-69
2022/04/13 03:16:52;;;;;;;32.13;14.97;;;;;;;5.40;64.80;101286.30;5217550;56;1139010;-69
2022/04/13 03:21:58;;;;;;;40.57;16.70;;;;;;;5.36;64.91;101283.41;5131950;57;1138985;-69
2022/04/13 03:27:04;;;;;;;39.17;15.30;;;;;;;5.35;65.04;101288.28;5217743;56;1139069;-67
2022/04/13 03:32:10;;;;;;;31.43;12.37;;;;;;;5.33;65.17;101286.19;5131793;57;1138999;-68
2022/04/13 03:37:16;;;;;;;23.07;11.97;;;;;;;5.29;65.23;101294.18;5234219;56;1139024;-69
2022/04/13 03:42:21;;;;;;;31.60;12.33;;;;;;;5.21;65.32;101288.86;5164198;57;1139076;-68
2022/04/13 03:47:27;;;;;;;27.60;13.77;;;;;;;5.18;65.41;101285.08;5242904;56;1138974;-69
2022/04/13 03:52:35;;;;;;;26.13;13.00;;;;;;;5.17;65.53;101288.16;5164261;57;1139164;-69
2022/04/13 03:57:41;;;;;;;27.90;11.90;;;;;;;5.13;65.49;101279.17;5210268;56;1138975;-68
2022/04/13 04:02:47;;;;;;;22.57;12.47;;;;;;;5.06;65.62;101285.58;5156228;57;1138988;-69
2022/04/13 04:07:53;;;;;;;22.57;11.87;;;;;;;4.99;65.78;101286.31;5156578;57;1139012;-68
2022/04/13 04:12:59;;;;;;;28.10;12.53;;;;;;;4.92;66.00;101281.77;4994609;59;1139031;-69
2022/04/13 04:18:06;;;;;;;18.73;12.03;;;;;;;4.87;66.38;101284.22;5156335;57;1138972;-69
2022/04/13 04:23:12;;;;;;;21.93;12.00;;;;;;;4.81;66.68;101285.77;5156279;57;1139035;-69
2022/04/13 04:28:17;;;;;;;27.03;11.50;;;;;;;4.77;66.94;101292.89;5156263;57;1139005;-68
2022/04/13 04:33:24;;;;;;;27.60;11.97;;;;;;;4.76;67.17;101297.73;4994581;59;1138946;-69
2022/04/13 04:38:33;;;;;;;22.13;12.03;;;;;;;4.78;67.10;101305.08;5142575;57;1139187;-69
2022/04/13 04:43:38;;;;;;;22.63;11.33;;;;;;;4.81;67.22;101306.73;5131650;57;1139018;-68
2022/04/13 04:48:45;;;;;;;22.13;11.00;;;;;;;4.84;67.22;101305.30;5131629;57;1139028;-67
2022/04/13 04:53:51;;;;;;;21.30;11.47;;;;;;;4.89;67.27;101310.73;5131700;57;1139042;-68
2022/04/13 04:58:57;;;;;;;16.07;10.57;;;;;;;4.94;67.21;101321.89;5010428;58;1139017;-68
2022/04/13 05:04:03;;;;;;;20.40;10.60;;;;;;;5.02;67.31;101333.84;5134929;57;1139087;-69
2022/04/13 05:09:09;;;;;;;22.40;10.83;;;;;;;5.09;67.34;101340.52;5175809;57;1139038;-69
2022/04/13 05:14:16;;;;;;;17.47;9.63;;;;;;;5.16;67.27;101336.27;5111434;57;1138919;-68
2022/04/13 05:19:21;;;;;;;22.10;11.17;;;;;;;5.24;67.44;101333.31;5155841;56;1136923;-68
2022/04/13 05:24:27;;;;;;;22.93;12.17;;;;;;;5.30;67.38;101336.54;5106655;57;1138946;-68
2022/04/13 05:29:32;;;;;;;21.40;12.10;;;;;;;5.38;67.48;101329.63;5116727;57;1139007;-69
2022/04/13 05:34:38;;;;;;;22.57;11.70;;;;;;;5.49;67.43;101321.32;5151000;57;1138984;-68
2022/04/13 05:39:45;;;;;;;20.27;11.30;;;;;;;5.63;67.32;101318.48;5158602;57;1138996;-68
2022/04/13 05:44:52;;;;;;;31.48;12.95;;;;;;;5.83;67.17;101316.72;5162588;57;1138981;-68
2022/04/13 05:49:57;;;;;;;21.77;11.77;;;;;;;6.06;66.50;101319.66;5162805;57;1139032;-69
2022/04/13 05:55:05;;;;;;;52.57;28.20;;;;;;;6.27;66.75;101315.55;5163751;57;1138986;-70
2022/04/13 06:00:12;;;;;;;30.20;16.85;;;;;;;6.50;66.73;101319.73;5089919;57;1138983;-68
2022/04/13 06:05:18;;;;;;;37.63;16.50;;;;;;;6.77;65.74;101323.25;5155522;57;1137171;-70
2022/04/13 06:10:24;;;;;;;55.27;24.93;;;;;;;6.98;65.45;101326.15;5155808;57;1136927;-70
2022/04/13 06:15:31;;;;;;;31.23;17.10;;;;;;;7.22;65.52;101337.20;4993133;59;1137162;-69
2022/04/13 06:20:37;;;;;;;79.50;34.83;;;;;;;7.50;65.27;101336.64;5155413;57;1136888;-69
2022/04/13 06:25:42;;;;;;;36.60;17.07;;;;;;;7.68;63.86;101323.84;5156025;57;1136911;-70
2022/04/13 06:30:49;;;;;;;54.87;27.70;;;;;;;7.88;63.63;101322.33;5155993;57;1137047;-68
2022/04/13 06:35:55;;;;;;;42.70;21.13;;;;;;;8.11;64.66;101327.19;5155882;57;1136955;-69
2022/04/13 06:41:00;;;;;;;44.00;22.30;;;;;;;8.37;63.96;101319.69;5155520;57;1136938;-70
2022/04/13 06:46:07;;;;;;;25.00;12.13;;;;;;;8.60;64.11;101318.37;5155863;57;1136931;-67
2022/04/13 06:51:14;;;;;;;20.20;11.17;;;;;;;8.82;62.83;101320.19;5155827;57;1136895;-68
2022/04/13 06:56:20;;;;;;;19.77;11.87;;;;;;;9.04;61.26;101329.02;5155975;57;1136948;-70
2022/04/13 07:01:26;;;;;;;19.80;10.57;;;;;;;9.25;62.38;101326.91;5155945;57;1136833;-69
2022/04/13 07:06:32;;;;;;;17.13;10.43;;;;;;;9.49;61.59;101331.57;5155777;57;1137019;-69
2022/04/13 07:11:37;;;;;;;24.77;11.53;;;;;;;9.74;61.28;101334.91;5155908;57;1136949;-68
2022/04/13 07:16:43;;;;;;;19.00;11.37;;;;;;;9.95;60.19;101346.41;4994185;59;1139046;-67
2022/04/13 07:21:48;;;;;;;17.50;10.20;;;;;;;10.17;59.03;101344.99;5155727;57;1138994;-68
2022/04/13 07:26:55;;;;;;;17.67;10.70;;;;;;;10.43;59.52;101345.16;5155661;57;1141331;-69
2022/04/13 07:32:01;;;;;;;21.10;11.30;;;;;;;10.68;58.22;101350.59;5155167;57;1139027;-70
2022/04/13 07:37:07;;;;;;;24.70;12.03;;;;;;;10.86;57.73;101349.37;4992751;59;1138880;-69
2022/04/13 07:42:13;;;;;;;19.97;11.03;;;;;;;11.07;58.32;101356.86;5156528;57;21186;-69
2022/04/13 07:47:22;;;;;;;19.43;11.13;;;;;;;11.27;57.79;101343.14;5118745;57;1138975;-70
2022/04/13 07:52:30;;;;;;;17.02;10.15;;;;;;;11.42;57.08;101345.23;5127977;57;1143285;-71
2022/04/13 07:57:38;;;;;;;23.33;11.07;;;;;;;11.59;55.00;101347.58;5091394;57;1143188;-70
2022/04/13 08:02:45;;;;;;;25.87;11.97;;;;;;;11.80;56.71;101348.77;5131169;57;1143130;-69
2022/04/13 08:07:51;;;;;;;22.40;11.03;;;;;;;12.07;54.59;101342.00;5160817;56;1143307;-69
2022/04/13 08:12:58;;;;;;;17.60;11.90;;;;;;;12.22;54.85;101341.42;5150542;57;1143141;-69
2022/04/13 08:18:03;;;;;;;19.43;10.57;;;;;;;12.46;53.70;101342.77;5119826;57;1143287;-72
2022/04/13 08:23:09;;;;;;;17.60;8.63;;;;;;;12.62;54.34;101336.72;5175203;56;1143149;-73
2022/04/13 08:28:15;;;;;;;20.03;10.73;;;;;;;12.83;52.68;101340.95;5186135;57;1141061;-72
2022/04/13 08:33:21;;;;;;;15.07;10.70;;;;;;;13.00;51.79;101328.56;5186274;57;1143378;-72
2022/04/13 08:38:27;;;;;;;18.87;11.83;;;;;;;13.13;52.82;101327.19;5044215;58;1143225;-72
2022/04/13 08:43:43;;;;;;;16.93;11.77;;;;;;;13.30;51.54;101318.79;5063703;58;1143203;-72
2022/04/13 08:48:52;;;;;;;19.13;10.63;;;;;;;13.50;50.93;101314.62;5067865;58;1143161;-72
2022/04/13 08:54:20;;;;;;;15.40;10.43;;;;;;;13.65;50.14;101315.61;5067765;58;1143406;-72
2022/04/13 08:59:45;;;;;;;16.97;9.97;;;;;;;13.80;47.78;101312.23;5018514;58;1143116;-72
2022/04/13 09:04:53;;;;;;;25.68;9.78;;;;;;;13.73;46.00;101306.56;5159930;56;1141172;-72
2022/04/13 09:10:02;;;;;;;18.57;9.43;;;;;;;13.83;48.07;101309.34;5156329;56;1141078;-72
2022/04/13 09:15:08;;;;;;;14.90;9.50;;;;;;;13.78;47.30;101312.83;4994587;59;1141071;-72
2022/04/13 09:20:15;;;;;;;15.93;9.17;;;;;;;13.84;46.45;101307.05;5155887;57;1141053;-72
2022/04/13 09:25:23;;;;;;;17.55;9.78;;;;;;;14.02;46.95;101306.08;5155547;57;1141128;-73
2022/04/13 09:30:33;;;;;;;15.90;9.97;;;;;;;14.15;45.20;101305.45;5155801;57;1141084;-73
2022/04/13 09:35:38;;;;;;;24.77;9.00;;;;;;;14.19;44.96;101301.59;5155734;57;1141180;-72
2022/04/13 09:40:44;;;;;;;14.60;8.50;;;;;;;14.31;42.58;101309.06;5153136;57;1141095;-72
2022/04/13 09:45:55;;;;;;;20.30;9.37;;;;;;;14.39;44.21;101308.79;5131145;57;1141097;-73
2022/04/13 09:51:03;;;;;;;10.60;7.33;;;;;;;14.36;43.75;101305.55;4982600;59;1139287;-72
2022/04/13 09:56:13;;;;;;;11.27;8.03;;;;;;;14.34;42.77;101307.48;5136968;56;1139225;-72
2022/04/13 10:01:20;;;;;;;15.17;10.57;;;;;;;14.48;42.08;101305.07;5212391;56;1139129;-72
2022/04/13 10:06:36;;;;;;;15.40;8.30;;;;;;;14.70;44.55;101299.66;5063236;58;1141334;-72
2022/04/13 10:12:03;;;;;;;11.37;7.63;;;;;;;15.17;40.47;101291.70;5212412;56;1139062;-72
2022/04/13 10:17:16;;;;;;;14.60;8.37;;;;;;;15.17;40.47;101291.70;5198285;56;1139020;-72
2022/04/13 10:22:22;;;;;;;12.00;8.23;;;;;;;15.31;40.55;101298.03;5212929;56;1139067;-72
2022/04/13 10:27:29;;;;;;;15.13;9.57;;;;;;;15.40;40.96;101290.61;5151018;57;1139008;-72
2022/04/13 10:32:36;;;;;;;12.35;9.43;;;;;;;15.51;38.95;101280.83;5216477;56;1139257;-72
2022/04/13 10:37:43;;;;;;;13.07;7.90;;;;;;;15.55;39.13;101268.48;5151195;57;1136974;-72
2022/04/13 10:42:52;;;;;;;11.47;7.63;;;;;;;15.66;38.35;101261.72;5224934;56;1179502;-72
2022/04/13 10:48:07;;;;;;;12.37;7.78;;;;;;;15.94;39.52;101260.13;5163418;57;1141046;-72
2022/04/13 10:53:33;;;;;;;12.10;7.33;;;;;;;16.18;38.23;101249.12;5242169;56;1141096;-72
2022/04/13 10:59:24;;;;;;;13.37;7.63;;;;;;;16.29;37.05;101242.32;5161590;57;1141132;-72
2022/04/13 11:04:33;;;;;;;13.80;7.58;;;;;;;16.42;37.43;101239.38;5237305;56;1140952;-72
2022/04/13 11:09:42;;;;;;;11.93;6.37;;;;;;;16.52;35.92;101242.89;5079382;58;1141076;-72
2022/04/13 11:14:56;;;;;;;7.93;6.50;;;;;;;16.53;35.90;101246.76;5242050;56;1141052;-72
2022/04/13 11:20:21;;;;;;;11.27;7.37;;;;;;;16.73;35.18;101238.79;5219539;56;1138858;-71
2022/04/13 11:25:47;;;;;;;11.03;7.80;;;;;;;16.88;35.74;101239.55;5210524;56;1141041;-71
2022/04/13 11:31:13;;;;;;;10.77;6.43;;;;;;;17.01;33.42;101239.25;5156326;57;1141081;-72
2022/04/13 11:36:21;;;;;;;8.43;5.93;;;;;;;17.04;32.51;101235.45;4994142;59;1141172;-72
2022/04/13 11:41:27;;;;;;;8.70;5.93;;;;;;;17.09;33.31;101249.24;5156346;57;1137163;-72
2022/04/13 11:46:41;;;;;;;8.43;6.30;;;;;;;17.26;31.56;101240.98;5133420;57;1136927;-73
2022/04/13 11:51:47;;;;;;;10.00;6.87;;;;;;;17.42;32.17;101235.34;5131810;57;1137205;-72
2022/04/13 11:56:56;;;;;;;13.70;6.10;;;;;;;17.45;31.15;101223.52;5149345;56;1139000;-72
2022/04/13 12:02:09;;;;;;;10.07;6.17;;;;;;;17.63;33.18;101227.61;5213020;56;1139008;-73
2022/04/13 12:07:17;;;;;;;9.20;6.20;;;;;;;17.65;31.85;101226.51;5206679;56;1139264;-72
2022/04/13 12:12:23;;;;;;;7.80;5.67;;;;;;;17.65;29.97;101222.50;5186636;57;1136915;-71
2022/04/13 12:17:28;;;;;;;8.70;5.77;;;;;;;17.58;29.93;101214.66;5131625;57;1136969;-72
2022/04/13 12:22:36;;;;;;;11.60;5.73;;;;;;;17.61;29.93;101206.35;5131080;57;1136898;-72
2022/04/13 12:27:45;;;;;;;8.30;6.37;;;;;;;17.65;29.75;101209.62;5043970;58;1139030;-72
2022/04/13 12:32:51;;;;;;;10.10;5.93;;;;;;;17.77;30.75;101193.70;5042212;58;1136968;-72
2022/04/13 12:37:57;;;;;;;11.53;5.80;;;;;;;17.92;31.65;101192.21;5131529;57;1138998;-72
2022/04/13 12:43:09;;;;;;;11.83;6.40;;;;;;;18.01;29.33;101187.31;5045575;58;1139039;-71
2022/04/13 12:48:10;;;;;;;14.43;7.00;;;;;;;18.12;30.73;101183.08;5155550;57;1136897;-72
2022/04/13 12:53:16;;;;;;;13.37;6.63;;;;;;;18.22;30.14;101177.14;5060477;58;1206330;-71
2022/04/13 12:58:23;;;;;;;15.83;6.40;;;;;;;18.13;27.88;101182.58;5192208;56;1141120;-72
2022/04/13 13:03:35;;;;;;;8.57;7.37;;;;;;;18.07;28.90;101171.12;5193310;56;1141121;-72
2022/04/13 13:08:59;;;;;;;9.75;5.20;;;;;;;18.18;29.52;101166.91;5165995;56;1139016;-72
2022/04/13 13:14:13;;;;;;;7.97;5.00;;;;;;;18.27;28.65;101157.45;5155171;57;1138964;-72
2022/04/13 13:19:29;;;;;;;8.27;5.90;;;;;;;18.21;28.31;101153.19;5155739;57;1138948;-72
2022/04/13 13:24:30;;;;;;;8.62;6.16;;;;;;;18.27;28.41;101153.44;5171183;56;1139076;-72
2022/04/13 13:29:48;;;;;;;14.48;6.18;;;;;;;18.34;28.48;101145.61;5029741;58;1139039;-72
2022/04/13 13:34:59;;;;;;;11.93;6.00;;;;;;;18.39;29.02;101142.48;5155515;57;1141085;-71
2022/04/13 13:40:08;;;;;;;10.57;5.80;;;;;;;18.56;28.06;101149.16;5186903;56;1141067;-72
2022/04/13 13:45:20;;;;;;;7.17;5.07;;;;;;;18.58;28.20;101140.97;5179137;56;1141127;-73
2022/04/13 13:50:27;;;;;;;9.13;6.37;;;;;;;18.59;28.07;101140.02;5186669;56;1138970;-73
2022/04/13 13:55:36;;;;;;;7.40;5.70;;;;;;;18.49;27.23;101135.19;5186960;56;1139108;-72
2022/04/13 14:00:42;;;;;;;7.30;5.00;;;;;;;18.49;28.16;101127.16;5160729;56;1139031;-72
2022/04/13 14:05:50;;;;;;;8.13;5.23;;;;;;;18.54;28.49;101127.05;5144674;57;1138995;-73
2022/04/13 14:10:56;;;;;;;6.73;5.67;;;;;;;18.45;27.31;101119.11;5151267;57;1139000;-72
2022/04/13 14:16:02;;;;;;;7.97;5.00;;;;;;;18.33;27.47;101119.86;5151211;57;1138960;-72
2022/04/13 14:21:08;;;;;;;12.93;5.47;;;;;;;18.33;27.47;101119.86;5151336;57;1139029;-72
2022/04/13 14:26:14;;;;;;;8.50;5.20;;;;;;;18.24;28.03;101112.23;5151279;57;1141038;-72
2022/04/13 14:31:20;;;;;;;9.60;5.30;;;;;;;18.19;28.28;101114.52;5151154;57;1138939;-71
2022/04/13 14:36:25;;;;;;;8.07;5.43;;;;;;;18.20;28.07;101105.99;5124709;57;1139032;-71
2022/04/13 14:41:31;;;;;;;6.60;5.60;;;;;;;18.17;27.93;101108.51;5108559;57;1139037;-71
2022/04/13 14:46:37;;;;;;;5.63;4.63;;;;;;;18.16;28.44;101104.64;5117803;57;1138971;-73
2022/04/13 14:51:43;;;;;;;14.23;8.30;;;;;;;18.18;28.57;101104.00;5105950;57;1139026;-72
2022/04/13 14:56:50;;;;;;;80.17;53.07;;;;;;;18.28;29.18;101100.72;5179946;56;1141154;-74
2022/04/13 15:01:55;;;;;;;9.87;6.93;;;;;;;18.36;28.58;101100.77;5175013;56;1143478;-73
2022/04/13 15:07:01;;;;;;;9.03;6.60;;;;;;;18.36;28.26;101102.11;5222271;56;1139029;-73
2022/04/13 15:12:07;;;;;;;14.23;8.90;;;;;;;18.27;27.23;101100.38;5222211;56;1136961;-73
2022/04/13 15:17:14;;;;;;;11.30;7.03;;;;;;;18.25;28.54;101105.05;5222330;56;1139301;-73
2022/04/13 15:22:19;;;;;;;11.00;6.90;;;;;;;18.33;28.38;101111.83;5198677;56;1139027;-73
2022/04/13 15:27:25;;;;;;;6.90;4.43;;;;;;;18.33;27.50;101110.98;5175872;56;1139040;-73
2022/04/13 15:32:31;;;;;;;5.80;5.20;;;;;;;18.34;28.74;101103.27;5072548;58;1136995;-73
2022/04/13 15:37:36;;;;;;;9.03;5.97;;;;;;;18.38;27.93;101099.28;5072780;58;1136926;-73
2022/04/13 15:42:42;;;;;;;12.87;5.83;;;;;;;18.36;28.27;101099.94;5072714;58;1136927;-73
2022/04/13 15:47:48;;;;;;;10.23;6.17;;;;;;;18.38;28.32;101098.78;5072764;58;1139032;-73
2022/04/13 15:52:54;;;;;;;11.63;6.07;;;;;;;18.38;27.53;101105.48;5072475;58;1139051;-73
2022/04/13 15:58:01;;;;;;;12.47;7.20;;;;;;;18.34;27.24;101095.23;5103182;57;1139282;-74
2022/04/13 16:03:08;;;;;;;10.70;5.77;;;;;;;18.29;28.04;101099.73;5218155;56;1138985;-73
2022/04/13 16:08:16;;;;;;;14.00;8.67;;;;;;;18.20;27.80;101092.61;5242617;56;1139084;-73
2022/04/13 16:13:21;;;;;;;26.53;10.33;;;;;;;18.12;27.98;101096.56;5240788;56;1139100;-73
2022/04/13 16:18:28;;;;;;;21.47;8.67;;;;;;;18.05;28.49;101091.47;5221897;56;1141078;-73
2022/04/13 16:23:34;;;;;;;18.03;10.13;;;;;;;17.96;28.30;101091.06;5200863;56;1138965;-73
2022/04/13 16:28:42;;;;;;;13.77;7.77;;;;;;;17.85;29.65;101084.95;5220459;56;1141072;-73
2022/04/13 16:33:47;;;;;;;12.83;6.50;;;;;;;17.77;29.26;101082.17;5187139;56;1138919;-73
2022/04/13 16:38:53;;;;;;;14.20;7.93;;;;;;;17.66;29.85;101086.91;5214783;56;1136901;-73
2022/04/13 16:44:00;;;;;;;26.60;13.30;;;;;;;17.62;30.57;101088.16;5193744;56;1136936;-73
2022/04/13 16:49:06;;;;;;;30.47;15.93;;;;;;;17.62;31.08;101097.03;5164857;57;1143062;-74
2022/04/13 16:54:12;;;;;;;28.24;13.66;;;;;;;17.55;30.66;101095.47;5082085;56;1143143;-73
2022/04/13 16:59:17;;;;;;;53.40;33.50;;;;;;;17.46;31.12;101093.67;5105241;57;1143093;-74
2022/04/13 17:04:23;;;;;;;58.23;40.05;;;;;;;17.36;31.65;101089.38;5208922;56;1142994;-75
2022/04/13 17:09:29;;;;;;;38.78;28.20;;;;;;;17.22;31.76;101087.55;5221873;56;1143154;-74
2022/04/13 17:14:35;;;;;;;19.33;15.77;;;;;;;17.16;32.22;101092.62;5221822;56;1143153;-74
2022/04/13 17:19:40;;;;;;;13.97;8.43;;;;;;;17.01;32.24;101087.42;5221755;56;1143210;-73
2022/04/13 17:24:46;;;;;;;17.93;8.77;;;;;;;16.90;33.10;101090.28;5194584;56;1141264;-73
2022/04/13 17:29:52;;;;;;;19.03;7.63;;;;;;;16.83;33.08;101086.84;5189971;56;1141181;-73
2022/04/13 17:34:59;;;;;;;10.47;7.63;;;;;;;16.70;33.52;101080.98;5156008;57;1141077;-74
2022/04/13 17:40:07;;;;;;;25.03;12.50;;;;;;;16.58;33.27;101083.94;5055977;58;1141267;-75
2022/04/13 17:45:13;;;;;;;14.10;8.63;;;;;;;16.42;33.74;101081.36;5203305;56;1143167;-74
2022/04/13 17:50:20;;;;;;;11.47;7.83;;;;;;;16.30;34.05;101088.34;5133493;57;1141170;-74
2022/04/13 17:55:26;;;;;;;490.20;280.43;;;;;;;16.16;34.52;101085.13;5173371;56;1141053;-75
2022/04/13 18:00:32;;;;;;;295.17;169.43;;;;;;;16.04;34.82;101090.22;5168894;56;1147314;-75
2022/04/13 18:05:38;;;;;;;144.93;82.17;;;;;;;15.96;35.35;101091.92;5210721;56;1147404;-75
2022/04/13 18:10:44;;;;;;;83.43;48.23;;;;;;;15.86;35.71;101099.09;5242250;56;1145260;-74
2022/04/13 18:15:50;;;;;;;31.37;17.80;;;;;;;15.76;36.19;101099.89;5241583;56;1143117;-75
2022/04/13 18:20:56;;;;;;;30.50;14.90;;;;;;;15.66;36.67;101109.72;5178830;56;1143157;-74
2022/04/13 18:26:01;;;;;;;32.27;15.87;;;;;;;15.54;37.21;101118.78;5155773;57;1143433;-75
2022/04/13 18:31:08;;;;;;;23.42;13.22;;;;;;;15.41;37.60;101117.70;5198641;56;1143159;-74
2022/04/13 18:36:21;;;;;;;60.00;25.47;;;;;;;15.26;37.94;101118.20;5155739;57;1143173;-74
2022/04/13 18:41:21;;;;;;;31.97;20.40;;;;;;;15.12;38.54;101114.08;5239654;56;1143176;-73
2022/04/13 18:46:26;;;;;;;26.47;14.53;;;;;;;14.97;39.02;101112.75;5232125;56;1143090;-74
2022/04/13 18:51:32;;;;;;;19.77;12.50;;;;;;;14.81;39.47;101115.05;5216253;56;1143300;-75
2022/04/13 18:56:43;;;;;;;20.33;13.10;;;;;;;14.62;40.04;101112.62;5170254;56;1143171;-69
2022/04/13 19:01:50;;;;;;;21.73;12.77;;;;;;;14.49;40.46;101107.14;5191462;56;1143248;-70
2022/04/13 19:06:56;;;;;;;18.57;11.67;;;;;;;14.38;40.85;101111.98;5189825;56;1143277;-71
2022/04/13 19:12:02;;;;;;;25.97;13.50;;;;;;;14.24;41.16;101104.31;5197839;56;1143100;-68
2022/04/13 19:17:10;;;;;;;23.10;13.07;;;;;;;14.17;41.46;101104.48;5205537;56;1143097;-71
2022/04/13 19:22:16;;;;;;;25.73;12.37;;;;;;;14.04;41.75;101105.51;5230522;56;1143132;-69
2022/04/13 19:27:22;;;;;;;19.70;12.50;;;;;;;13.92;42.18;101102.50;5204378;56;1143387;-69
2022/04/13 19:32:27;;;;;;;21.17;12.40;;;;;;;13.76;42.56;101104.73;5186358;56;1143345;-69
2022/04/13 19:37:33;;;;;;;24.07;14.17;;;;;;;13.65;42.66;101108.75;5193422;56;1143130;-70
2022/04/13 19:42:38;;;;;;;24.53;12.57;;;;;;;13.60;43.04;101108.27;5209388;56;1143179;-70
2022/04/13 19:47:44;;;;;;;29.27;14.20;;;;;;;13.55;43.15;101109.99;5164872;57;1143412;-70
2022/04/13 19:52:52;;;;;;;24.30;14.07;;;;;;;13.52;43.42;101112.05;5165469;56;1143179;-69
2022/04/13 19:57:58;;;;;;;24.57;13.83;;;;;;;13.38;43.56;101105.19;5197929;56;1143121;-70
2022/04/13 20:03:05;;;;;;;30.83;16.13;;;;;;;13.32;43.85;101115.80;5230980;56;1141191;-71
2022/04/13 20:08:11;;;;;;;23.53;13.57;;;;;;;13.21;44.22;101114.97;5179634;56;1141087;-70
2022/04/13 20:13:17;;;;;;;28.17;14.57;;;;;;;13.13;44.40;101120.03;5190735;56;1140996;-69
2022/04/13 20:18:22;;;;;;;31.73;14.70;;;;;;;13.06;44.50;101114.34;5164220;57;1141205;-69
2022/04/13 20:23:28;;;;;;;23.03;13.53;;;;;;;12.97;44.77;101118.58;5189006;56;1141063;-70
2022/04/13 20:28:34;;;;;;;25.43;13.03;;;;;;;12.91;44.99;101109.74;5164097;56;1141176;-70
2022/04/13 20:33:40;;;;;;;31.23;15.83;;;;;;;12.81;45.17;101114.57;5163272;57;1141039;-70
2022/04/13 20:38:47;;;;;;;26.93;15.23;;;;;;;12.73;45.53;101112.49;5164042;57;1141071;-69
2022/04/13 20:43:52;;;;;;;21.30;12.63;;;;;;;12.66;45.69;101108.16;5190826;56;1141015;-69
2022/04/13 20:48:58;;;;;;;24.47;12.82;;;;;;;12.55;45.77;101096.65;5202658;56;1141116;-70
2022/04/13 20:54:03;;;;;;;25.83;13.43;;;;;;;12.48;46.21;101094.97;5199758;56;1141025;-70
2022/04/13 20:59:09;;;;;;;25.03;12.63;;;;;;;12.41;46.17;101099.03;5223582;56;1141117;-70
2022/04/13 21:04:15;;;;;;;27.13;14.13;;;;;;;12.33;46.18;101102.77;5133288;57;1141048;-69
2022/04/13 21:09:23;;;;;;;28.30;14.43;;;;;;;12.27;46.22;101101.89;5188021;56;1141305;-69
2022/04/13 21:14:28;;;;;;;34.33;16.83;;;;;;;12.22;46.26;101099.57;5188223;56;1141046;-69
2022/04/13 21:19:34;;;;;;;45.77;19.27;;;;;;;12.15;46.38;101094.37;5197247;56;1141145;-70
2022/04/13 21:24:46;;;;;;;37.43;15.63;;;;;;;12.07;46.54;101093.27;5163815;57;1141152;-69
2022/04/13 21:29:52;;;;;;;38.30;18.93;;;;;;;12.04;46.64;101092.17;5125167;57;1138942;-68
2022/04/13 21:34:57;;;;;;;30.80;14.47;;;;;;;11.99;46.76;101097.80;5188907;56;1139028;-70
2022/04/13 21:40:04;;;;;;;34.83;16.47;;;;;;;11.93;46.85;101100.90;5207887;56;21155;-70
2022/04/13 21:45:10;;;;;;;37.87;18.00;;;;;;;11.92;46.92;101101.86;5191381;56;1138980;-70
2022/04/13 21:50:16;;;;;;;33.08;15.55;;;;;;;11.88;47.00;101101.74;5170319;56;1143534;-69
2022/04/13 21:55:23;;;;;;;39.20;15.15;;;;;;;11.80;47.30;101093.02;5133373;57;1143593;-69
2022/04/13 22:00:50;;;;;;;32.40;16.30;;;;;;;11.73;47.37;101093.08;5058309;58;1143328;-69
2022/04/13 22:05:56;;;;;;;32.77;14.63;;;;;;;11.67;47.41;101090.86;5151300;57;1143090;-68
2022/04/13 22:11:04;;;;;;;27.70;14.60;;;;;;;11.58;47.58;101087.09;5216942;56;1143197;-68
2022/04/13 22:16:10;;;;;;;23.17;12.20;;;;;;;11.51;47.60;101092.45;5067737;58;1143167;-70
2022/04/13 22:21:16;;;;;;;28.07;13.27;;;;;;;11.46;47.75;101087.96;5216962;56;1143141;-69
2022/04/13 22:26:22;;;;;;;26.57;13.13;;;;;;;11.45;47.91;101088.09;5151188;57;1143134;-69
2022/04/13 22:31:28;;;;;;;32.03;13.93;;;;;;;11.42;47.96;101083.02;5216923;56;1143296;-69
2022/04/13 22:36:33;;;;;;;28.70;13.53;;;;;;;11.37;47.98;101091.28;5067603;58;1143127;-70
2022/04/13 22:41:39;;;;;;;25.17;12.67;;;;;;;11.33;48.18;101086.31;5216717;56;1143122;-68
2022/04/13 22:46:45;;;;;;;24.83;13.00;;;;;;;11.28;48.42;101087.98;5151264;57;1143180;-69
2022/04/13 22:51:53;;;;;;;23.17;12.23;;;;;;;11.23;48.36;101088.30;5216861;56;1143209;-71
2022/04/13 22:56:58;;;;;;;28.70;13.47;;;;;;;11.21;48.55;101085.39;5063304;58;1143344;-70